Santa Marta, Colombia

11:29 PM COT en Noviembre 22, 2014 (GMT -0500)
Playa Salguero | Change Station
CLOSE
Current Station
Estación meteorológica personal
Location: Rodadero Sur Santa Marta, Magdalena
Altura: 0 ft
Estaciones meteorológicas cercanas

Alt 0 ft 11.19 °N, 74.23 °W | Updated 8 seconds ago

Mostly Cloudy
Muy nublado
81.0 ° F
Sensación térmica 86 ° F
N
11.0
Viento Variable Viento desde Este
Gusts 20.0 mph

Hoy
Alta -- | Baja -- ° F
--% Posibilidad de precipitaciones
Ayer
Alta -- | Baja -- ° F
Precip. -- pul
5:55 AM 5:30 PM
Luna nueva, 1% visible
Presión 29.85 pul
Visibilidad 6.2 Millas
Nubes Baja 1200 ft
Muy nublado 10000 ft
Índice de calor 86 ° F
Punto de rocío 74 ° F
Humedad 78%
Precipitaciones 0.07 pul
Espesor de la nieve No disponible.
UV 0 de una escala de 12
Polen No disponible.
Calidad del aire No disponible.
Flu Activity No disponible.
METAR SKBQ 230400Z 03007KT 9999 FEW012 BKN100 27/24 A2985

More Conditions Fewer Conditions

Presión 29.85 pul
Visibilidad 6.2 Millas
Nubes Baja 1200 ft
Muy nublado 10000 ft
Índice de calor 86 ° F
Punto de rocío 74 ° F
Humedad 78%
Precipitaciones 0.07 pul
Espesor de la nieve No disponible.
UV 0 de una escala de 12
Polen No disponible.
Calidad del aire No disponible.
Flu Activity No disponible.
METAR SKBQ 230400Z 03007KT 9999 FEW012 BKN100 27/24 A2985

More Conditions Fewer Conditions

10-Day Weather Forecast

Almanac

Astronomía

Nov. 22, 2014 Salida Puesta
Hora real
Crepúsculo civil
Crepúsculo náutico
Crepúsculo astronómico
Luna
Horas de luz
Horas de luz
Tomorrow will be .
, % of the Moon is Illuminated

Extremos de hoy

Máximos del país Bajas del país

Community

WunderPhotos

Upload Photos

1,772,997 ¡fotos cargadas!

WunderBlogs® & News

Nearby

Calidad del aire

  Calidad del aire Índice AQ Contaminante
Not available.

Grosos de nieve

Estación Profundido Altura

Actividad de terremotos

Ciudad Distance Mag. Tiempo y dato
Magnitud mínima muestra es 2,5.

Temperaturas de aguas costeras

Lugar Temperatura

Estaciones meteorológicas cercanas